TOM2370 EGCC-LGKO
Flight info
| Callsign | TOM2370 |
|---|---|
| Flight time | N/A |
| Altitude | 39000 |
| Route | SONE1Y SONEX UL975 DESIG L603 DOLAS NAVPI DODEN NEGIX DINKU BESNI LATLO OBEDI BERTA TEBLI TIVNU MEDUX UM867 KOGAT ERANA UL737 TSL UN130 MES UN139 LURUS L995 KOPAR KOPA1M |
| Aircraft | B789/H-V/N |
Departure
| Time | 2026-05-05 08:11 |
|---|---|
| Airport | Manchester Airport (EGCC) |
Arrival
| Time | N/A |
|---|---|
| Airport | Kos International Airport "Ippokratis" (LGKO) |
| Time | Latitude | Longitude | Altitude | Speed | Heading |
|---|---|---|---|---|---|
| 2026-05-05 07:22 | 53.36518 | -2.27866 | 270 ft | 0 kts | 45° |
| 2026-05-05 07:56 | 53.36510 | -2.27878 | 270 ft | 3 kts | 44° |
| 2026-05-05 07:56 | 53.36496 | -2.27902 | 270 ft | 3 kts | 43° |
| 2026-05-05 07:56 | 53.36481 | -2.27925 | 270 ft | 3 kts | 44° |
| 2026-05-05 07:57 | 53.36470 | -2.27942 | 270 ft | 3 kts | 50° |
| 2026-05-05 07:57 | 53.36463 | -2.27964 | 270 ft | 3 kts | 82° |
| 2026-05-05 07:57 | 53.36464 | -2.27985 | 270 ft | 3 kts | 117° |
| 2026-05-05 07:57 | 53.36475 | -2.28011 | 270 ft | 3 kts | 134° |
| 2026-05-05 07:58 | 53.36486 | -2.28030 | 270 ft | 1 kts | 137° |
| 2026-05-05 07:58 | 53.36487 | -2.28031 | 270 ft | 0 kts | 137° |
| 2026-05-05 07:59 | 53.36487 | -2.28030 | 270 ft | 0 kts | 137° |
| 2026-05-05 08:00 | 53.36470 | -2.28005 | 270 ft | 6 kts | 137° |
| 2026-05-05 08:00 | 53.36427 | -2.27942 | 270 ft | 10 kts | 151° |
| 2026-05-05 08:01 | 53.36367 | -2.27976 | 270 ft | 11 kts | 219° |
| 2026-05-05 08:01 | 53.36300 | -2.28055 | 270 ft | 13 kts | 202° |
| 2026-05-05 08:01 | 53.36207 | -2.28077 | 270 ft | 14 kts | 153° |
| 2026-05-05 08:01 | 53.36125 | -2.27955 | 270 ft | 17 kts | 134° |
| 2026-05-05 08:02 | 53.36054 | -2.27845 | 270 ft | 13 kts | 156° |
| 2026-05-05 08:02 | 53.36016 | -2.27836 | 270 ft | 3 kts | 183° |
| 2026-05-05 08:02 | 53.36013 | -2.27837 | 270 ft | 0 kts | 183° |
| 2026-05-05 08:03 | 53.36004 | -2.27838 | 270 ft | 4 kts | 183° |
| 2026-05-05 08:03 | 53.35963 | -2.27842 | 270 ft | 8 kts | 185° |
| 2026-05-05 08:03 | 53.35929 | -2.27848 | 270 ft | 6 kts | 185° |
| 2026-05-05 08:03 | 53.35906 | -2.27851 | 270 ft | 4 kts | 185° |
| 2026-05-05 08:04 | 53.35866 | -2.27830 | 270 ft | 8 kts | 142° |
| 2026-05-05 08:04 | 53.35817 | -2.27742 | 270 ft | 13 kts | 130° |
| 2026-05-05 08:04 | 53.35737 | -2.27653 | 270 ft | 16 kts | 161° |
| 2026-05-05 08:04 | 53.35655 | -2.27578 | 270 ft | 10 kts | 141° |
| 2026-05-05 08:05 | 53.35619 | -2.27528 | 270 ft | 9 kts | 141° |
| 2026-05-05 08:05 | 53.35576 | -2.27470 | 270 ft | 9 kts | 141° |
| 2026-05-05 08:05 | 53.35514 | -2.27390 | 270 ft | 13 kts | 142° |
| 2026-05-05 08:05 | 53.35439 | -2.27290 | 270 ft | 7 kts | 141° |
| 2026-05-05 08:06 | 53.35385 | -2.27225 | 270 ft | 12 kts | 147° |
| 2026-05-05 08:06 | 53.35331 | -2.27199 | 270 ft | 13 kts | 182° |
| 2026-05-05 08:06 | 53.35172 | -2.27449 | 270 ft | 11 kts | 230° |
| 2026-05-05 08:07 | 53.35110 | -2.27516 | 270 ft | 10 kts | 167° |
| 2026-05-05 08:07 | 53.35057 | -2.27487 | 270 ft | 3 kts | 170° |
| 2026-05-05 08:07 | 53.35053 | -2.27486 | 270 ft | 0 kts | 170° |
| 2026-05-05 08:08 | 53.35041 | -2.27482 | 270 ft | 4 kts | 170° |
| 2026-05-05 08:08 | 53.34997 | -2.27473 | 270 ft | 9 kts | 173° |
| 2026-05-05 08:09 | 53.34932 | -2.27493 | 270 ft | 11 kts | 219° |
| 2026-05-05 08:09 | 53.34919 | -2.27515 | 270 ft | 0 kts | 227° |
| 2026-05-05 08:10 | 53.34917 | -2.27518 | 270 ft | 2 kts | 227° |
| 2026-05-05 08:10 | 53.34878 | -2.27591 | 270 ft | 22 kts | 229° |
| 2026-05-05 08:10 | 53.34578 | -2.28210 | 270 ft | 114 kts | 230° |
| 2026-05-05 08:10 | 53.33920 | -2.29587 | 362 ft | 177 kts | 232° |
| 2026-05-05 08:11 | 53.33153 | -2.31154 | 1427 ft | 173 kts | 229° |
| 2026-05-05 08:11 | 53.32307 | -2.32653 | 2355 ft | 181 kts | 228° |
| 2026-05-05 08:11 | 53.31764 | -2.34630 | 2859 ft | 199 kts | 261° |
| 2026-05-05 08:11 | 53.32084 | -2.36947 | 3355 ft | 218 kts | 299° |
| 2026-05-05 08:12 | 53.33255 | -2.38645 | 3987 ft | 232 kts | 332° |
| 2026-05-05 08:12 | 53.34768 | -2.39704 | 4700 ft | 240 kts | 336° |
| 2026-05-05 08:12 | 53.36320 | -2.40826 | 5314 ft | 251 kts | 335° |
| 2026-05-05 08:12 | 53.37930 | -2.42048 | 5985 ft | 257 kts | 334° |
| 2026-05-05 08:13 | 53.39569 | -2.43324 | 6693 ft | 262 kts | 333° |
| 2026-05-05 08:13 | 53.41259 | -2.44562 | 7380 ft | 268 kts | 339° |
| 2026-05-05 08:13 | 53.43073 | -2.45413 | 8076 ft | 274 kts | 349° |
| 2026-05-05 08:13 | 53.44983 | -2.45063 | 8675 ft | 283 kts | 19° |
| 2026-05-05 08:14 | 53.46593 | -2.43183 | 9381 ft | 287 kts | 47° |
| 2026-05-05 08:14 | 53.47493 | -2.40223 | 10113 ft | 287 kts | 76° |
| 2026-05-05 08:14 | 53.47571 | -2.36890 | 10842 ft | 287 kts | 92° |
| 2026-05-05 08:14 | 53.47655 | -2.33479 | 11270 ft | 299 kts | 83° |
| 2026-05-05 08:15 | 53.48048 | -2.29972 | 11596 ft | 313 kts | 76° |
| 2026-05-05 08:15 | 53.48659 | -2.26388 | 11916 ft | 327 kts | 72° |
| 2026-05-05 08:15 | 53.49375 | -2.22670 | 12204 ft | 342 kts | 73° |
| 2026-05-05 08:15 | 53.49845 | -2.18680 | 12444 ft | 357 kts | 81° |
| 2026-05-05 08:16 | 53.50225 | -2.14477 | 12731 ft | 369 kts | 81° |
| 2026-05-05 08:16 | 53.50621 | -2.10158 | 13148 ft | 377 kts | 81° |
| 2026-05-05 08:16 | 53.51046 | -2.05775 | 13625 ft | 384 kts | 81° |
| 2026-05-05 08:16 | 53.51488 | -2.01379 | 14134 ft | 389 kts | 81° |
| 2026-05-05 08:17 | 53.51945 | -1.96889 | 14683 ft | 392 kts | 81° |
| 2026-05-05 08:17 | 53.52124 | -1.92311 | 15248 ft | 393 kts | 94° |
| 2026-05-05 08:17 | 53.51788 | -1.87773 | 16011 ft | 389 kts | 100° |
| 2026-05-05 08:17 | 53.51303 | -1.83301 | 16648 ft | 389 kts | 103° |
| 2026-05-05 08:18 | 53.50703 | -1.78865 | 17171 ft | 392 kts | 105° |
| 2026-05-05 08:18 | 53.50013 | -1.74408 | 17656 ft | 395 kts | 107° |
| 2026-05-05 08:18 | 53.49274 | -1.69945 | 18179 ft | 398 kts | 108° |
| 2026-05-05 08:18 | 53.48508 | -1.65476 | 18735 ft | 399 kts | 108° |
| 2026-05-05 08:19 | 53.47727 | -1.60992 | 19289 ft | 400 kts | 108° |
| 2026-05-05 08:19 | 53.46934 | -1.56505 | 19829 ft | 401 kts | 109° |
| 2026-05-05 08:19 | 53.46130 | -1.51997 | 20356 ft | 402 kts | 109° |
| 2026-05-05 08:19 | 53.45323 | -1.47488 | 20856 ft | 404 kts | 109° |
| 2026-05-05 08:20 | 53.44510 | -1.42962 | 21331 ft | 407 kts | 109° |
| 2026-05-05 08:20 | 53.43740 | -1.38679 | 21801 ft | 408 kts | 109° |
| 2026-05-05 08:20 | 53.42916 | -1.34122 | 22279 ft | 410 kts | 109° |
| 2026-05-05 08:20 | 53.42096 | -1.29590 | 22767 ft | 411 kts | 109° |
| 2026-05-05 08:21 | 53.41535 | -1.26497 | 23101 ft | 412 kts | 109° |
| 2026-05-05 08:21 | 53.40427 | -1.20392 | 23754 ft | 414 kts | 110° |
| 2026-05-05 08:21 | 53.39585 | -1.15765 | 24223 ft | 415 kts | 110° |
| 2026-05-05 08:21 | 53.38736 | -1.11121 | 24613 ft | 419 kts | 110° |
| 2026-05-05 08:22 | 53.37880 | -1.06444 | 24982 ft | 422 kts | 110° |
| 2026-05-05 08:22 | 53.37009 | -1.01707 | 25369 ft | 425 kts | 110° |
| 2026-05-05 08:22 | 53.36136 | -0.96969 | 25784 ft | 427 kts | 110° |
| 2026-05-05 08:22 | 53.35257 | -0.92204 | 26210 ft | 429 kts | 110° |
| 2026-05-05 08:23 | 53.34381 | -0.87470 | 26585 ft | 432 kts | 110° |
| 2026-05-05 08:23 | 53.33488 | -0.82648 | 26958 ft | 434 kts | 110° |
| 2026-05-05 08:23 | 53.32588 | -0.77806 | 27305 ft | 437 kts | 110° |
| 2026-05-05 08:23 | 53.31677 | -0.72931 | 27653 ft | 440 kts | 110° |
| 2026-05-05 08:24 | 53.30761 | -0.68043 | 28004 ft | 443 kts | 110° |
| 2026-05-05 08:24 | 53.29836 | -0.63113 | 28354 ft | 445 kts | 110° |
| 2026-05-05 08:24 | 53.28906 | -0.58155 | 28707 ft | 448 kts | 110° |
| 2026-05-05 08:24 | 53.27974 | -0.53194 | 29152 ft | 447 kts | 110° |
| 2026-05-05 08:25 | 53.27044 | -0.48253 | 29750 ft | 443 kts | 110° |
| 2026-05-05 08:25 | 53.26118 | -0.43360 | 30221 ft | 442 kts | 110° |
| 2026-05-05 08:25 | 53.25187 | -0.38466 | 30567 ft | 443 kts | 110° |
| 2026-05-05 08:25 | 53.24251 | -0.33555 | 30889 ft | 445 kts | 110° |
| 2026-05-05 08:26 | 53.23628 | -0.30298 | 31056 ft | 447 kts | 110° |
| 2026-05-05 08:26 | 53.22351 | -0.23625 | 31398 ft | 451 kts | 110° |
| 2026-05-05 08:26 | 53.21392 | -0.18628 | 31682 ft | 454 kts | 110° |
| 2026-05-05 08:26 | 53.20425 | -0.13606 | 32029 ft | 455 kts | 110° |
| 2026-05-05 08:27 | 53.19455 | -0.08578 | 32415 ft | 455 kts | 110° |
| 2026-05-05 08:27 | 53.18497 | -0.03621 | 32778 ft | 455 kts | 110° |
| 2026-05-05 08:27 | 53.17567 | 0.01174 | 33142 ft | 454 kts | 110° |
| 2026-05-05 08:27 | 53.16547 | 0.06413 | 33681 ft | 451 kts | 109° |
| 2026-05-05 08:28 | 53.15580 | 0.11376 | 34082 ft | 450 kts | 109° |
| 2026-05-05 08:28 | 53.14626 | 0.16254 | 34428 ft | 449 kts | 109° |
| 2026-05-05 08:28 | 53.13656 | 0.21208 | 34776 ft | 449 kts | 109° |
| 2026-05-05 08:28 | 53.12682 | 0.26166 | 35085 ft | 450 kts | 109° |
| 2026-05-05 08:29 | 53.11705 | 0.31125 | 35386 ft | 450 kts | 109° |
| 2026-05-05 08:29 | 53.10724 | 0.36095 | 35680 ft | 451 kts | 109° |
| 2026-05-05 08:29 | 53.09744 | 0.41044 | 35966 ft | 452 kts | 109° |
| 2026-05-05 08:30 | 53.07767 | 0.50996 | 36513 ft | 453 kts | 109° |
| 2026-05-05 08:30 | 53.06777 | 0.55958 | 36775 ft | 454 kts | 109° |
| 2026-05-05 08:30 | 53.05781 | 0.60937 | 37034 ft | 454 kts | 109° |
| 2026-05-05 08:30 | 53.04793 | 0.65865 | 37287 ft | 455 kts | 109° |
| 2026-05-05 08:31 | 53.03793 | 0.70838 | 37539 ft | 455 kts | 109° |
| 2026-05-05 08:31 | 53.02789 | 0.75821 | 37777 ft | 456 kts | 109° |
| 2026-05-05 08:31 | 53.01776 | 0.80832 | 38014 ft | 456 kts | 109° |
| 2026-05-05 08:31 | 53.00764 | 0.85826 | 38241 ft | 457 kts | 109° |
| 2026-05-05 08:32 | 52.99750 | 0.90819 | 38455 ft | 457 kts | 109° |
| 2026-05-05 08:32 | 52.98732 | 0.95818 | 38672 ft | 458 kts | 109° |
| 2026-05-05 08:32 | 52.97683 | 1.00848 | 38880 ft | 458 kts | 110° |
| 2026-05-05 08:32 | 52.96588 | 1.05811 | 39080 ft | 459 kts | 111° |
| 2026-05-05 08:33 | 52.95471 | 1.10759 | 39292 ft | 459 kts | 111° |
| 2026-05-05 08:33 | 52.94724 | 1.14047 | 39418 ft | 459 kts | 111° |
| 2026-05-05 08:33 | 52.93215 | 1.20691 | 39682 ft | 460 kts | 111° |
| 2026-05-05 08:33 | 52.92088 | 1.25646 | 39882 ft | 460 kts | 111° |
| 2026-05-05 08:34 | 52.90958 | 1.30605 | 40054 ft | 461 kts | 111° |
| 2026-05-05 08:34 | 52.89826 | 1.35568 | 40240 ft | 461 kts | 111° |
| 2026-05-05 08:34 | 52.88693 | 1.40528 | 40429 ft | 461 kts | 111° |
| 2026-05-05 08:34 | 52.87551 | 1.45509 | 40591 ft | 462 kts | 111° |
| 2026-05-05 08:35 | 52.86422 | 1.50423 | 40758 ft | 462 kts | 111° |
| 2026-05-05 08:35 | 52.85280 | 1.55382 | 40927 ft | 461 kts | 111° |
| 2026-05-05 08:35 | 52.84132 | 1.60357 | 41032 ft | 462 kts | 111° |
| 2026-05-05 08:36 | 52.81815 | 1.70344 | 41055 ft | 468 kts | 111° |
| 2026-05-05 08:36 | 52.79466 | 1.80431 | 41058 ft | 471 kts | 111° |
| 2026-05-05 08:37 | 52.77102 | 1.90549 | 41043 ft | 471 kts | 111° |
| 2026-05-05 08:37 | 52.74747 | 2.00590 | 41056 ft | 471 kts | 111° |
| 2026-05-05 08:38 | 52.72339 | 2.10794 | 41062 ft | 478 kts | 111° |
| 2026-05-05 08:38 | 52.69914 | 2.21011 | 41049 ft | 482 kts | 112° |
| 2026-05-05 08:39 | 52.67466 | 2.31283 | 41047 ft | 481 kts | 112° |
| 2026-05-05 08:39 | 52.65003 | 2.41572 | 41056 ft | 482 kts | 112° |
| 2026-05-05 08:40 | 52.62535 | 2.51832 | 41044 ft | 481 kts | 112° |
| 2026-05-05 08:40 | 52.60063 | 2.62068 | 41049 ft | 481 kts | 112° |
| 2026-05-05 08:41 | 52.57593 | 2.72244 | 41059 ft | 481 kts | 112° |
| 2026-05-05 08:41 | 52.55028 | 2.82403 | 41046 ft | 481 kts | 116° |
| 2026-05-05 08:42 | 52.52488 | 2.90606 | 41050 ft | 481 kts | 118° |
| 2026-05-05 08:42 | 52.49304 | 3.00201 | 41059 ft | 481 kts | 119° |
| 2026-05-05 08:43 | 52.46062 | 3.09823 | 41049 ft | 481 kts | 120° |
| 2026-05-05 08:43 | 52.42821 | 3.19417 | 41050 ft | 481 kts | 120° |
| 2026-05-05 08:44 | 52.39577 | 3.28999 | 41062 ft | 481 kts | 119° |
| 2026-05-05 08:44 | 52.36340 | 3.38570 | 41048 ft | 480 kts | 119° |
| 2026-05-05 08:45 | 52.33114 | 3.48057 | 41053 ft | 480 kts | 120° |
| 2026-05-05 08:45 | 52.29837 | 3.57632 | 41056 ft | 480 kts | 120° |
| 2026-05-05 08:46 | 52.26583 | 3.67099 | 41042 ft | 480 kts | 120° |
| 2026-05-05 08:46 | 52.23306 | 3.76598 | 41052 ft | 480 kts | 120° |
| 2026-05-05 08:47 | 52.20019 | 3.86090 | 41054 ft | 480 kts | 120° |
| 2026-05-05 08:47 | 52.16727 | 3.95561 | 41040 ft | 480 kts | 120° |
| 2026-05-05 08:48 | 52.13426 | 4.05020 | 41048 ft | 480 kts | 120° |
| 2026-05-05 08:48 | 52.10121 | 4.14456 | 41043 ft | 480 kts | 120° |
| 2026-05-05 08:49 | 52.06800 | 4.23901 | 41030 ft | 480 kts | 120° |
| 2026-05-05 08:49 | 52.03478 | 4.33315 | 41032 ft | 480 kts | 120° |
| 2026-05-05 08:50 | 52.00143 | 4.42729 | 41026 ft | 480 kts | 120° |
| 2026-05-05 08:50 | 51.96821 | 4.52063 | 41018 ft | 481 kts | 121° |
| 2026-05-05 08:51 | 51.93467 | 4.61459 | 41032 ft | 482 kts | 121° |
| 2026-05-05 08:51 | 51.90100 | 4.70860 | 41024 ft | 482 kts | 121° |
| 2026-05-05 08:52 | 51.86725 | 4.80250 | 41024 ft | 482 kts | 121° |
| 2026-05-05 08:52 | 51.83345 | 4.89615 | 41030 ft | 482 kts | 121° |
| 2026-05-05 08:53 | 51.79971 | 4.98929 | 41017 ft | 483 kts | 121° |
| 2026-05-05 08:53 | 51.76576 | 5.08273 | 41030 ft | 483 kts | 121° |
| 2026-05-05 08:54 | 51.73167 | 5.17616 | 41029 ft | 483 kts | 121° |
| 2026-05-05 08:54 | 51.69744 | 5.26963 | 41022 ft | 483 kts | 121° |
| 2026-05-05 08:55 | 51.66325 | 5.36267 | 41035 ft | 483 kts | 121° |
| 2026-05-05 08:55 | 51.62889 | 5.45579 | 41027 ft | 483 kts | 121° |
| 2026-05-05 08:56 | 51.59465 | 5.54822 | 41043 ft | 484 kts | 121° |
| 2026-05-05 08:57 | 51.50284 | 5.79435 | 41041 ft | 483 kts | 122° |
| 2026-05-05 08:58 | 51.45475 | 5.92243 | 41052 ft | 484 kts | 122° |
| 2026-05-05 08:58 | 51.41990 | 6.01483 | 41041 ft | 483 kts | 122° |
| 2026-05-05 08:59 | 51.38505 | 6.10693 | 41053 ft | 484 kts | 122° |
| 2026-05-05 08:59 | 51.35012 | 6.19887 | 41052 ft | 484 kts | 122° |
| 2026-05-05 09:00 | 51.31501 | 6.29099 | 41041 ft | 484 kts | 122° |
| 2026-05-05 09:00 | 51.28020 | 6.38198 | 41055 ft | 484 kts | 122° |
| 2026-05-05 09:01 | 51.24497 | 6.47374 | 41055 ft | 484 kts | 122° |
| 2026-05-05 09:01 | 51.20967 | 6.56534 | 41046 ft | 484 kts | 122° |
| 2026-05-05 09:02 | 51.17435 | 6.65669 | 41059 ft | 484 kts | 122° |
| 2026-05-05 09:02 | 51.13894 | 6.74794 | 41049 ft | 484 kts | 122° |
| 2026-05-05 09:03 | 51.10344 | 6.83910 | 41044 ft | 484 kts | 122° |
| 2026-05-05 09:03 | 51.06807 | 6.92963 | 41052 ft | 484 kts | 123° |
| 2026-05-05 09:04 | 51.03238 | 7.02064 | 41041 ft | 485 kts | 122° |
| 2026-05-05 09:04 | 50.99667 | 7.11152 | 41046 ft | 485 kts | 122° |
| 2026-05-05 09:05 | 50.96085 | 7.20230 | 41057 ft | 485 kts | 123° |
| 2026-05-05 09:05 | 50.92512 | 7.29249 | 41046 ft | 485 kts | 123° |
| 2026-05-05 09:06 | 50.88909 | 7.38311 | 41049 ft | 485 kts | 123° |
| 2026-05-05 09:06 | 50.87109 | 7.42824 | 41055 ft | 486 kts | 123° |
| 2026-05-05 09:07 | 50.82049 | 7.55473 | 41036 ft | 485 kts | 123° |
| 2026-05-05 09:07 | 50.78428 | 7.64476 | 41020 ft | 485 kts | 123° |
| 2026-05-05 09:08 | 50.74821 | 7.73420 | 41009 ft | 485 kts | 123° |
| 2026-05-05 09:08 | 50.71192 | 7.82389 | 41001 ft | 485 kts | 123° |
| 2026-05-05 09:09 | 50.67558 | 7.91341 | 40999 ft | 486 kts | 123° |
| 2026-05-05 09:09 | 50.63908 | 8.00305 | 40997 ft | 486 kts | 123° |
| 2026-05-05 09:10 | 50.60115 | 8.09113 | 40994 ft | 485 kts | 127° |
| 2026-05-05 09:10 | 50.56008 | 8.17541 | 41001 ft | 485 kts | 129° |
| 2026-05-05 09:11 | 50.51834 | 8.25794 | 41006 ft | 484 kts | 129° |
| 2026-05-05 09:11 | 50.47638 | 8.34040 | 41008 ft | 484 kts | 129° |
| 2026-05-05 09:12 | 50.43408 | 8.42313 | 41026 ft | 485 kts | 129° |
| 2026-05-05 09:12 | 50.39165 | 8.50555 | 41038 ft | 485 kts | 131° |
| 2026-05-05 09:13 | 50.34670 | 8.58460 | 41035 ft | 484 kts | 134° |
| 2026-05-05 09:13 | 50.30073 | 8.66179 | 41034 ft | 484 kts | 134° |
| 2026-05-05 09:14 | 50.25505 | 8.73804 | 41049 ft | 484 kts | 134° |
| 2026-05-05 09:14 | 50.20885 | 8.81496 | 41045 ft | 484 kts | 134° |
| 2026-05-05 09:15 | 50.16275 | 8.89149 | 41040 ft | 484 kts | 134° |
| 2026-05-05 09:15 | 50.11646 | 8.96812 | 41053 ft | 484 kts | 134° |
| 2026-05-05 09:16 | 50.07047 | 9.04401 | 41043 ft | 484 kts | 134° |
| 2026-05-05 09:16 | 50.02406 | 9.12037 | 41038 ft | 485 kts | 134° |
| 2026-05-05 09:17 | 49.97769 | 9.19650 | 41053 ft | 486 kts | 134° |
| 2026-05-05 09:17 | 49.93109 | 9.27273 | 41045 ft | 487 kts | 134° |
| 2026-05-05 09:18 | 49.88473 | 9.34833 | 41039 ft | 486 kts | 134° |
| 2026-05-05 09:18 | 49.83805 | 9.42421 | 41051 ft | 486 kts | 134° |
| 2026-05-05 09:19 | 49.79125 | 9.50008 | 41039 ft | 486 kts | 134° |
| 2026-05-05 09:19 | 49.74450 | 9.57563 | 41032 ft | 486 kts | 135° |
| 2026-05-05 09:20 | 49.69779 | 9.65088 | 41041 ft | 487 kts | 135° |
| 2026-05-05 09:20 | 49.65071 | 9.72645 | 41028 ft | 487 kts | 135° |
| 2026-05-05 09:21 | 49.60373 | 9.80165 | 41023 ft | 486 kts | 135° |
| 2026-05-05 09:21 | 49.55671 | 9.87674 | 41037 ft | 487 kts | 135° |
| 2026-05-05 09:22 | 49.50959 | 9.95176 | 41026 ft | 487 kts | 135° |
| 2026-05-05 09:22 | 49.46277 | 10.02610 | 41022 ft | 487 kts | 135° |
| 2026-05-05 09:23 | 49.41559 | 10.10078 | 41034 ft | 487 kts | 135° |
| 2026-05-05 09:23 | 49.36835 | 10.17534 | 41025 ft | 486 kts | 135° |
| 2026-05-05 09:24 | 49.32107 | 10.24983 | 41032 ft | 486 kts | 135° |
| 2026-05-05 09:24 | 49.27381 | 10.32402 | 41044 ft | 487 kts | 135° |
| 2026-05-05 09:25 | 49.22637 | 10.39734 | 41035 ft | 487 kts | 136° |
| 2026-05-05 09:25 | 49.17780 | 10.46993 | 41022 ft | 486 kts | 137° |
| 2026-05-05 09:26 | 49.12921 | 10.54198 | 41032 ft | 487 kts | 137° |
| 2026-05-05 09:26 | 49.08052 | 10.61401 | 41028 ft | 487 kts | 137° |
| 2026-05-05 09:27 | 49.03184 | 10.68585 | 41015 ft | 487 kts | 137° |
| 2026-05-05 09:27 | 48.99950 | 10.73347 | 41021 ft | 487 kts | 137° |
| 2026-05-05 09:28 | 48.93788 | 10.82395 | 41025 ft | 487 kts | 137° |
| 2026-05-05 09:28 | 48.89709 | 10.88367 | 41016 ft | 487 kts | 137° |
| 2026-05-05 09:29 | 48.84021 | 10.96669 | 41031 ft | 488 kts | 137° |
| 2026-05-05 09:29 | 48.79111 | 11.03814 | 41030 ft | 488 kts | 137° |
| 2026-05-05 09:30 | 48.74204 | 11.10936 | 41019 ft | 488 kts | 137° |
| 2026-05-05 09:30 | 48.69282 | 11.18058 | 41031 ft | 489 kts | 137° |
| 2026-05-05 09:31 | 48.64423 | 11.25160 | 41024 ft | 489 kts | 135° |
| 2026-05-05 09:31 | 48.59792 | 11.32712 | 41020 ft | 490 kts | 133° |
| 2026-05-05 09:32 | 48.55237 | 11.40348 | 41034 ft | 490 kts | 133° |
| 2026-05-05 09:32 | 48.50654 | 11.47979 | 41024 ft | 490 kts | 134° |
| 2026-05-05 09:33 | 48.46047 | 11.55569 | 41019 ft | 490 kts | 134° |
| 2026-05-05 09:33 | 48.41458 | 11.63111 | 41033 ft | 491 kts | 134° |
| 2026-05-05 09:34 | 48.36844 | 11.70685 | 41022 ft | 491 kts | 134° |
| 2026-05-05 09:34 | 48.32218 | 11.78262 | 41020 ft | 491 kts | 134° |
| 2026-05-05 09:35 | 48.27586 | 11.85830 | 41031 ft | 492 kts | 134° |
| 2026-05-05 09:35 | 48.20612 | 11.97180 | 41016 ft | 492 kts | 134° |
| 2026-05-05 09:36 | 48.15964 | 12.04717 | 41030 ft | 492 kts | 134° |
| 2026-05-05 09:36 | 48.11338 | 12.12197 | 41023 ft | 492 kts | 134° |
| 2026-05-05 09:37 | 48.06682 | 12.19706 | 41019 ft | 492 kts | 134° |
| 2026-05-05 09:37 | 48.02019 | 12.27204 | 41024 ft | 492 kts | 134° |
| 2026-05-05 09:38 | 47.97348 | 12.34691 | 41011 ft | 492 kts | 134° |
| 2026-05-05 09:38 | 47.92670 | 12.42170 | 41022 ft | 492 kts | 134° |
| 2026-05-05 09:39 | 47.88017 | 12.49594 | 41025 ft | 493 kts | 134° |
| 2026-05-05 09:39 | 47.83332 | 12.57048 | 41013 ft | 492 kts | 134° |
| 2026-05-05 09:40 | 47.78636 | 12.64493 | 41026 ft | 493 kts | 134° |
| 2026-05-05 09:40 | 47.73947 | 12.71904 | 41019 ft | 493 kts | 134° |
| 2026-05-05 09:41 | 47.69220 | 12.79323 | 41018 ft | 493 kts | 135° |
| 2026-05-05 09:41 | 47.64405 | 12.86566 | 41027 ft | 493 kts | 136° |
| 2026-05-05 09:42 | 47.59570 | 12.93716 | 41015 ft | 493 kts | 136° |
| 2026-05-05 09:42 | 47.54718 | 13.00869 | 41018 ft | 493 kts | 136° |
| 2026-05-05 09:43 | 47.49850 | 13.08027 | 41021 ft | 493 kts | 136° |
| 2026-05-05 09:43 | 47.44982 | 13.15167 | 41006 ft | 493 kts | 136° |
| 2026-05-05 09:44 | 47.40138 | 13.22254 | 41008 ft | 493 kts | 136° |
| 2026-05-05 09:44 | 47.35260 | 13.29371 | 41005 ft | 493 kts | 136° |
| 2026-05-05 09:45 | 47.30410 | 13.36552 | 40991 ft | 493 kts | 135° |
| 2026-05-05 09:45 | 47.25626 | 13.43770 | 40991 ft | 493 kts | 135° |
| 2026-05-05 09:46 | 47.20825 | 13.51005 | 40989 ft | 493 kts | 135° |
| 2026-05-05 09:46 | 47.16045 | 13.58180 | 40972 ft | 493 kts | 135° |
| 2026-05-05 09:47 | 47.11244 | 13.65362 | 40972 ft | 493 kts | 135° |
| 2026-05-05 09:47 | 47.06415 | 13.72553 | 40977 ft | 494 kts | 135° |
| 2026-05-05 09:48 | 47.01591 | 13.79723 | 40963 ft | 494 kts | 136° |
| 2026-05-05 09:48 | 46.96747 | 13.86908 | 40967 ft | 494 kts | 136° |
| 2026-05-05 09:49 | 46.91913 | 13.94061 | 40970 ft | 495 kts | 136° |
| 2026-05-05 09:49 | 46.87062 | 14.01217 | 40958 ft | 495 kts | 135° |
| 2026-05-05 09:50 | 46.82234 | 14.08324 | 40969 ft | 495 kts | 136° |
| 2026-05-05 09:50 | 46.77366 | 14.15469 | 40966 ft | 496 kts | 136° |
| 2026-05-05 09:51 | 46.72488 | 14.22607 | 40958 ft | 495 kts | 136° |
| 2026-05-05 09:51 | 46.67647 | 14.29673 | 40972 ft | 496 kts | 136° |
| 2026-05-05 09:52 | 46.62771 | 14.36770 | 40963 ft | 496 kts | 136° |
| 2026-05-05 09:52 | 46.57884 | 14.43864 | 40960 ft | 496 kts | 136° |
| 2026-05-05 09:53 | 46.52993 | 14.50944 | 40973 ft | 496 kts | 136° |
| 2026-05-05 09:53 | 46.48096 | 14.58014 | 40965 ft | 496 kts | 136° |
| 2026-05-05 09:54 | 46.43359 | 14.65206 | 40966 ft | 496 kts | 132° |
| 2026-05-05 09:54 | 46.38866 | 14.72837 | 40971 ft | 497 kts | 130° |
| 2026-05-05 09:55 | 46.34405 | 14.80489 | 40962 ft | 497 kts | 131° |
| 2026-05-05 09:55 | 46.29922 | 14.88091 | 40970 ft | 496 kts | 131° |
| 2026-05-05 09:56 | 46.25417 | 14.95670 | 40976 ft | 497 kts | 131° |
| 2026-05-05 09:56 | 46.20932 | 15.03206 | 40964 ft | 497 kts | 131° |
| 2026-05-05 09:57 | 46.16415 | 15.10787 | 40972 ft | 498 kts | 131° |
| 2026-05-05 09:57 | 46.11905 | 15.18338 | 40976 ft | 497 kts | 131° |
| 2026-05-05 09:58 | 46.07367 | 15.25915 | 40962 ft | 497 kts | 131° |
| 2026-05-05 09:58 | 46.05100 | 15.29691 | 40963 ft | 498 kts | 131° |